WetterOnline ( https://www.wetteronline.de )

Wetter aktuell Hinte

Aktuelles Wetter: Emden (5m)

6-stündlich | Neueste Meldungen
Ortszeit Temperatur Wetter
Mi, 23.10. 14:00 12.5° C bedeckt
Mi, 23.10. 8:00 4.9° C Nebel
Mi, 23.10. 2:00 10.6° C bedeckt
Di, 22.10. 20:00 11.8° C bedeckt
Di, 22.10. 14:00 13.6° C bewölkt
Di, 22.10. 8:00 11.3° C bewölkt
Di, 22.10. 2:00 11.8° C bedeckt
Mo, 21.10. 20:00 13.9° C bedeckt
Ortszeit Temperatur Wetter
Mi, 23.10. 19:30 11.8° C bedeckt
Mi, 23.10. 19:20 11.8° C bedeckt
Mi, 23.10. 19:10 11.9° C bewölkt
Mi, 23.10. 19:00 12.1° C wolkig
Mi, 23.10. 18:50 12.1° C wolkig
Mi, 23.10. 18:40 11.9° C wolkig
Mi, 23.10. 18:30 11.7° C wolkenlos
Mi, 23.10. 18:00 12.7° C wolkenlos
Mi, 23.10. 17:30 13.7° C leicht bewölkt
Mi, 23.10. 17:00 14.3° C fast wolkenlos
Mi, 23.10. 16:30 14.2° C bewölkt
Ortszeit Relative Feuchte Sichtweite
Mi, 23.10. 14:00 90% 8 km
Mi, 23.10. 8:00 100% 100 m
Mi, 23.10. 2:00 87% 35 km
Di, 22.10. 20:00 93% 35 km
Di, 22.10. 14:00 88% 9 km
Di, 22.10. 8:00 91% 8 km
Di, 22.10. 2:00 84% 55 km
Mo, 21.10. 20:00 82% >70 km
Ortszeit Relative Feuchte Sichtweite
Mi, 23.10. 19:30 91% 9 km
Mi, 23.10. 19:20 91% -
Mi, 23.10. 19:10 91% -
Mi, 23.10. 19:00 88% 10 km
Mi, 23.10. 18:50 88% -
Mi, 23.10. 18:40 89% -
Mi, 23.10. 18:30 89% 8 km
Mi, 23.10. 18:00 85% 10 km
Mi, 23.10. 17:30 80% 12 km
Mi, 23.10. 17:00 80% 11 km
Mi, 23.10. 16:30 83% 8 km
Ortszeit Niederschlagsmenge Niederschlagsart
Mi, 23.10. 14:00 0.0 l/m2 in 6 Std. -
Mi, 23.10. 8:00 0.0 l/m2 in 12 Std. -
Mi, 23.10. 2:00 0.0 l/m2 in 6 Std. -
Di, 22.10. 20:00 0.1 l/m2 in 12 Std. Regen
Di, 22.10. 14:00 0.0 l/m2 in 6 Std. -
Di, 22.10. 8:00 0.0 l/m2 in 12 Std. -
Di, 22.10. 2:00 0.0 l/m2 in 6 Std. -
Mo, 21.10. 20:00 0.2 l/m2 in 12 Std. Regen
Ortszeit Niederschlagsmenge Niederschlagsart
Mi, 23.10. 19:30 0.0 l/m2 in 1 Std. -
Mi, 23.10. 19:20 keine Meldung -
Mi, 23.10. 19:10 keine Meldung -
Mi, 23.10. 19:00 0.0 l/m2 in 1 Std. -
Mi, 23.10. 18:50 keine Meldung -
Mi, 23.10. 18:40 keine Meldung -
Mi, 23.10. 18:30 0.0 l/m2 in 1 Std. -
Mi, 23.10. 18:00 0.0 l/m2 in 1 Std. -
Mi, 23.10. 17:30 0.0 l/m2 in 1 Std. -
Mi, 23.10. 17:00 0.0 l/m2 in 1 Std. -
Mi, 23.10. 16:30 0.0 l/m2 in 1 Std. -
Ortszeit Stärke Spitze Richtung
km/h Bft. km/h Grad Sektor
Mi, 23.10. 14:00 11 2 18 90° O
Mi, 23.10. 8:00 4 1 7 100° O
Mi, 23.10. 2:00 4 1 11 250° W
Di, 22.10. 20:00 0 0 25 - -
Di, 22.10. 14:00 15 3 30 210° SW
Di, 22.10. 8:00 14 3 32 200° S
Di, 22.10. 2:00 11 2 25 200° S
Mo, 21.10. 20:00 17 3 26 210° SW
Ortszeit Stärke Spitze Richtung
km/h Bft. km/h Grad Sektor
Mi, 23.10. 19:30 14 3 25 100° O
Mi, 23.10. 19:20 14 3 - 100° O
Mi, 23.10. 19:10 18 3 - 100° O
Mi, 23.10. 19:00 17 3 24 110° O
Mi, 23.10. 18:50 17 3 - 110° O
Mi, 23.10. 18:40 13 3 - 100° O
Mi, 23.10. 18:30 13 3 19 100° O
Mi, 23.10. 18:00 11 2 18 100° O
Mi, 23.10. 17:30 15 3 19 100° O
Mi, 23.10. 17:00 13 3 22 100° O
Mi, 23.10. 16:30 13 3 20 80° O
Ortszeit Untergrenze Bedeckung Gattung
total tief tief mittel hoch
Mi, 23.10. 14:00 180 m 8/8 8/8 - - -
Mi, 23.10. 8:00 <30 m 7/8 0/8 - - -
Mi, 23.10. 2:00 840 m 8/8 8/8 - - -
Di, 22.10. 20:00 510 m 8/8 8/8 - - -
Di, 22.10. 14:00 270 m 7/8 7/8 - - -
Di, 22.10. 8:00 270 m 7/8 7/8 - - -
Di, 22.10. 2:00 810 m 8/8 8/8 - - -
Mo, 21.10. 20:00 1320 m 8/8 8/8 - - -
Ortszeit Bedeckungsgrad in Achtel und Wolkenuntergrenze
Mi, 23.10. 19:30 8(4800m)
Mi, 23.10. 19:20 8(4800m)
Mi, 23.10. 19:10 7(4800m)
Mi, 23.10. 19:00 5(5100m)
Mi, 23.10. 18:50 5(5100m)
Mi, 23.10. 18:40 6(4800m)
Mi, 23.10. 18:30 3(5100m)
Mi, 23.10. 18:00 keine Wolken
Mi, 23.10. 17:30 2(2700m) 3(3300m)
Mi, 23.10. 17:00 1(2700m)
Mi, 23.10. 16:30 1(360m) 7(2400m)
Ortszeit Luftdruck NN (hPa) Tendenz (hPa in 3 Std.)
Mi, 23.10. 14:00 1017 - 2,5
Mi, 23.10. 8:00 1020 - 1,4
Mi, 23.10. 2:00 1023 0,0
Di, 22.10. 20:00 1023 + 0,6
Di, 22.10. 14:00 1023 + 0,8
Di, 22.10. 8:00 1020 + 0,4
Di, 22.10. 2:00 1020 + 0,8
Mo, 21.10. 20:00 1018 + 2,2
Ortszeit Luftdruck NN (hPa) Tendenz (hPa in 3 Std.)
Mi, 23.10. 19:30 1013 - 2,0
Mi, 23.10. 19:20 1013 keine Meldung
Mi, 23.10. 19:10 1013 keine Meldung
Mi, 23.10. 19:00 1013 - 2,5
Mi, 23.10. 18:50 1013 keine Meldung
Mi, 23.10. 18:40 1013 keine Meldung
Mi, 23.10. 18:30 1013 - 2,7
Mi, 23.10. 18:00 1013 - 3,0
Mi, 23.10. 17:30 1014 - 3,0
Mi, 23.10. 17:00 1015 - 2,5
Mi, 23.10. 16:30 1015 - 2,9
Ortszeit Schneehöhe (cm)
Mi, 23.10. 14:00 0
Mi, 23.10. 8:00 0
Mi, 23.10. 2:00 0
Di, 22.10. 20:00 0
Di, 22.10. 14:00 0
Di, 22.10. 8:00 0
Di, 22.10. 2:00 0
Mo, 21.10. 20:00 0
Ortszeit Schneehöhe (cm)
Mi, 23.10. 19:30 0
Mi, 23.10. 19:20 0
Mi, 23.10. 19:10 0
Mi, 23.10. 19:00 0
Mi, 23.10. 18:50 0
Mi, 23.10. 18:40 0
Mi, 23.10. 18:30 0
Mi, 23.10. 18:00 0
Mi, 23.10. 17:30 0
Mi, 23.10. 17:00 0
Mi, 23.10. 16:30 0
Link zu dieser Seite / Seite empfehlen

Das Wetter in ...